Time;durP1;ratioP1;P1;durP2;ratioP2;P2;SDS_P1;SDS_P2;PMS_P1;PMS_P2;Temp;Humidity;BMP_temperature;BMP_pressure;BME280_temperature;BME280_humidity;BME280_pressure;Samples;Min_cycle;Max_cycle;Signal;HPM_P1;HPM_P2
2023/04/03 00:00:59;;;;;;;1.27;0.57;;;18.20;1.00;;;;;;5052484;28;20041;-35
2023/04/03 00:03:26;;;;;;;1.65;0.40;;;18.20;1.00;;;;;;5051906;28;20059;-36
2023/04/03 00:05:53;;;;;;;3.38;0.47;;;18.20;1.00;;;;;;5052683;28;20041;-35
2023/04/03 00:08:20;;;;;;;1.73;0.20;;;18.10;1.00;;;;;;5052746;28;20045;-35
2023/04/03 00:10:47;;;;;;;1.15;0.40;;;18.10;1.00;;;;;;5052664;28;20048;-35
2023/04/03 00:13:15;;;;;;;0.73;0.35;;;18.10;1.00;;;;;;5051927;28;20033;-35
2023/04/03 00:15:42;;;;;;;1.55;0.52;;;18.10;1.00;;;;;;5052555;28;20044;-35
2023/04/03 00:18:09;;;;;;;0.70;0.30;;;18.00;1.00;;;;;;5051652;28;20055;-35
2023/04/03 00:20:36;;;;;;;3.22;0.40;;;18.00;1.00;;;;;;5051661;28;20045;-35
2023/04/03 00:23:04;;;;;;;0.73;0.20;;;18.00;1.00;;;;;;5050741;28;20531;-35
2023/04/03 00:25:30;;;;;;;0.98;0.25;;;18.00;1.00;;;;;;5051610;28;20040;-35
2023/04/03 00:27:57;;;;;;;1.15;0.47;;;17.90;1.00;;;;;;5051993;28;20098;-35
2023/04/03 00:30:24;;;;;;;0.43;0.30;;;17.90;1.00;;;;;;5052308;28;20045;-35
2023/04/03 00:32:53;;;;;;;1.25;0.65;;;17.90;1.00;;;;;;5033732;28;20596;-35
2023/04/03 00:35:21;;;;;;;0.95;0.28;;;17.80;1.00;;;;;;5034315;28;20037;-35
2023/04/03 00:37:50;;;;;;;2.35;0.52;;;17.80;1.00;;;;;;5034281;28;20053;-35
2023/04/03 00:40:17;;;;;;;1.02;0.52;;;17.80;1.00;;;;;;5034280;28;20119;-35
2023/04/03 00:42:46;;;;;;;1.42;0.40;;;17.80;1.00;;;;;;5033485;28;20049;-35
2023/04/03 00:45:37;;;;;;;0.63;0.20;;;17.80;1.00;;;;;;5051976;28;20048;-35
2023/04/03 00:48:06;;;;;;;1.05;0.50;;;17.70;1.00;;;;;;5033332;28;20052;-36
2023/04/03 00:50:36;;;;;;;1.35;0.47;;;17.70;1.00;;;;;;5051315;28;20037;-35
2023/04/03 00:53:06;;;;;;;1.88;0.55;;;17.70;1.00;;;;;;5032335;28;20041;-35
2023/04/03 00:55:35;;;;;;;1.42;0.30;;;17.70;1.00;;;;;;5033150;28;20132;-35
2023/04/03 00:58:02;;;;;;;2.42;0.43;;;17.70;1.00;;;;;;5051065;28;20041;-35
2023/04/03 01:00:30;;;;;;;0.45;0.20;;;17.60;1.00;;;;;;5051943;28;20044;-35
2023/04/03 01:02:56;;;;;;;1.42;0.30;;;17.60;1.00;;;;;;5033162;28;20283;-35
2023/04/03 01:05:24;;;;;;;0.95;0.40;;;17.60;1.00;;;;;;5033996;28;20087;-35
2023/04/03 01:07:52;;;;;;;0.88;0.40;;;17.60;1.00;;;;;;5033841;28;20049;-35
2023/04/03 01:10:20;;;;;;;2.35;0.30;;;17.60;1.00;;;;;;5033865;28;20049;-35
2023/04/03 01:12:50;;;;;;;3.17;0.40;;;17.50;1.00;;;;;;5051059;28;20517;-35
2023/04/03 01:15:23;;;;;;;1.42;0.77;;;17.50;1.00;;;;;;5051663;28;20033;-35
2023/04/03 01:17:56;;;;;;;1.63;0.43;;;17.50;1.00;;;;;;5034000;28;20531;-35
2023/04/03 01:20:28;;;;;;;2.20;0.70;;;17.40;1.00;;;;;;5033658;28;20051;-35
2023/04/03 01:23:23;;;;;;;1.33;0.40;;;17.40;1.00;;;;;;5032081;28;20049;-35
2023/04/03 01:25:53;;;;;;;1.33;0.40;;;17.40;1.00;;;;;;5033218;28;20053;-35
2023/04/03 01:28:26;;;;;;;1.13;0.40;;;17.40;1.00;;;;;;5050734;28;20056;-35
2023/04/03 01:31:15;;;;;;;1.10;0.60;;;17.40;1.00;;;;;;5051145;28;20117;-35
2023/04/03 01:33:43;;;;;;;0.70;0.40;;;17.30;1.00;;;;;;5050832;28;20042;-35
2023/04/03 01:36:16;;;;;;;0.60;0.30;;;17.30;1.00;;;;;;5033516;28;20041;-35
2023/04/03 01:38:43;;;;;;;1.90;0.55;;;17.30;1.00;;;;;;5033685;28;20040;-35
2023/04/03 01:41:10;;;;;;;0.68;0.30;;;17.30;1.00;;;;;;5033582;28;20041;-35
2023/04/03 01:43:37;;;;;;;0.95;0.38;;;17.30;1.00;;;;;;5050720;28;20037;-36
2023/04/03 01:46:04;;;;;;;1.33;0.40;;;17.30;1.00;;;;;;5051251;28;20045;-35
2023/04/03 01:48:31;;;;;;;2.50;0.38;;;17.30;1.00;;;;;;5032666;28;20045;-35
2023/04/03 01:50:57;;;;;;;0.75;0.28;;;17.20;1.00;;;;;;5032751;28;20072;-35
2023/04/03 01:53:25;;;;;;;0.40;0.20;;;17.20;1.00;;;;;;5031771;28;20037;-36
2023/04/03 01:55:51;;;;;;;1.02;0.32;;;17.20;1.00;;;;;;5050615;28;20043;-35
2023/04/03 01:58:18;;;;;;;1.67;0.30;;;17.20;1.00;;;;;;5034800;28;20049;-35
2023/04/03 02:00:47;;;;;;;1.65;0.30;;;17.10;1.00;;;;;;5037315;28;20104;-35
2023/04/03 02:03:15;;;;;;;0.47;0.17;;;17.10;1.00;;;;;;5036139;28;20140;-35
2023/04/03 02:05:41;;;;;;;1.02;0.30;;;17.10;1.00;;;;;;5037097;28;20049;-35
2023/04/03 02:08:10;;;;;;;1.25;0.30;;;17.10;1.00;;;;;;5054950;28;20459;-35
2023/04/03 02:10:37;;;;;;;0.98;0.28;;;17.10;1.00;;;;;;5055022;28;20095;-35
2023/04/03 02:13:05;;;;;;;1.10;0.30;;;17.00;1.00;;;;;;5036295;28;20041;-35
2023/04/03 02:15:32;;;;;;;1.35;0.55;;;17.00;1.00;;;;;;5036830;28;20503;-35
2023/04/03 02:17:59;;;;;;;1.70;0.77;;;17.00;1.00;;;;;;5054835;28;20120;-35
2023/04/03 02:20:26;;;;;;;1.20;0.80;;;17.10;1.00;;;;;;5035938;28;20096;-35
2023/04/03 02:22:53;;;;;;;1.88;0.55;;;17.00;1.00;;;;;;5035201;28;20055;-35
2023/04/03 02:25:20;;;;;;;0.80;0.40;;;17.00;1.00;;;;;;5053698;28;20041;-35
2023/04/03 02:27:47;;;;;;;0.63;0.15;;;17.00;1.00;;;;;;5036004;28;20076;-35
2023/04/03 02:30:14;;;;;;;1.20;0.40;;;16.90;1.00;;;;;;5036877;28;20051;-35
2023/04/03 02:32:42;;;;;;;2.85;0.60;;;16.90;1.00;;;;;;5053836;28;20111;-35
2023/04/03 02:35:10;;;;;;;0.95;0.20;;;16.90;1.00;;;;;;5036589;28;20087;-35
2023/04/03 02:37:38;;;;;;;0.50;0.15;;;16.90;1.00;;;;;;5036495;28;20056;-35
2023/04/03 02:40:06;;;;;;;0.82;0.35;;;16.90;1.00;;;;;;5054460;28;20052;-35
2023/04/03 02:42:34;;;;;;;1.30;0.30;;;16.90;1.00;;;;;;5036015;28;20049;-35
2023/04/03 02:45:03;;;;;;;1.58;0.57;;;16.80;1.00;;;;;;5036057;28;20690;-35
2023/04/03 02:47:34;;;;;;;2.10;0.60;;;16.80;1.00;;;;;;5036296;28;20068;-35
2023/04/03 02:50:01;;;;;;;2.13;0.50;;;16.80;1.00;;;;;;5036084;28;20045;-35
2023/04/03 02:52:29;;;;;;;1.80;0.30;;;16.80;1.00;;;;;;5035182;28;20487;-35
2023/04/03 02:54:57;;;;;;;1.55;0.40;;;16.80;1.00;;;;;;5034861;28;20048;-35
2023/04/03 02:57:24;;;;;;;2.42;0.40;;;16.80;1.00;;;;;;5035076;28;20052;-35
2023/04/03 02:59:51;;;;;;;2.33;0.50;;;16.70;1.00;;;;;;5053516;28;20048;-35
2023/04/03 03:02:17;;;;;;;1.67;0.50;;;16.70;1.00;;;;;;5035718;28;20049;-35
2023/04/03 03:04:44;;;;;;;1.67;0.50;;;16.70;1.00;;;;;;5053249;28;20037;-35
2023/04/03 03:07:11;;;;;;;0.70;0.22;;;16.80;1.00;;;;;;5053955;28;20045;-35
2023/04/03 03:09:38;;;;;;;1.23;0.63;;;16.80;1.00;;;;;;5035175;28;20041;-35
2023/04/03 03:12:05;;;;;;;1.02;0.32;;;16.90;1.00;;;;;;5053670;28;20055;-35
2023/04/03 03:14:31;;;;;;;0.85;0.40;;;16.90;1.00;;;;;;5035040;28;20041;-35
2023/04/03 03:16:58;;;;;;;0.95;0.40;;;17.00;1.00;;;;;;5034869;28;20051;-35
2023/04/03 03:19:25;;;;;;;1.63;0.45;;;17.10;1.00;;;;;;5034988;28;20068;-35
2023/04/03 03:21:52;;;;;;;1.83;0.55;;;17.10;1.00;;;;;;5052678;28;20040;-35
2023/04/03 03:24:19;;;;;;;0.98;0.40;;;17.20;1.00;;;;;;5034068;28;20045;-35
2023/04/03 03:26:47;;;;;;;1.92;0.47;;;17.30;1.00;;;;;;5035615;28;20449;-35
2023/04/03 03:29:14;;;;;;;1.13;0.30;;;17.30;1.00;;;;;;5035550;28;20045;-35
2023/04/03 03:31:42;;;;;;;0.80;0.20;;;17.30;1.00;;;;;;5035594;28;20045;-35
2023/04/03 03:34:08;;;;;;;2.67;0.70;;;17.40;1.00;;;;;;5052586;28;20044;-35
2023/04/03 03:36:36;;;;;;;0.93;0.30;;;17.40;1.00;;;;;;5053290;28;20094;-36
2023/04/03 03:39:02;;;;;;;2.80;0.60;;;17.40;1.00;;;;;;5035235;28;20385;-35
2023/04/03 03:41:29;;;;;;;3.20;0.40;;;17.50;1.00;;;;;;5053235;28;20049;-35
2023/04/03 03:43:57;;;;;;;2.63;0.47;;;17.50;1.00;;;;;;5034587;28;20060;-35
2023/04/03 03:46:25;;;;;;;2.63;0.43;;;17.50;1.00;;;;;;5035249;28;20501;-35
2023/04/03 03:48:52;;;;;;;0.85;0.40;;;17.50;1.00;;;;;;5035109;28;20133;-35
2023/04/03 03:51:19;;;;;;;2.15;0.40;;;17.50;1.00;;;;;;5052457;28;20048;-35
2023/04/03 03:53:46;;;;;;;1.77;0.55;;;17.50;1.00;;;;;;5033296;28;20136;-35
2023/04/03 03:56:17;;;;;;;1.15;0.30;;;17.50;1.00;;;;;;5034150;28;20128;-35
2023/04/03 03:58:45;;;;;;;1.33;0.60;;;17.50;1.00;;;;;;5034076;28;20095;-35
2023/04/03 04:01:12;;;;;;;1.40;0.40;;;17.50;1.00;;;;;;5034623;28;20055;-35
2023/04/03 04:03:55;;;;;;;3.17;0.40;;;17.50;1.00;;;;;;5034319;28;20094;-34
2023/04/03 04:06:26;;;;;;;2.40;0.60;;;17.40;1.00;;;;;;5009683;28;20382;-31
2023/04/03 04:08:57;;;;;;;1.40;0.45;;;17.40;1.00;;;;;;4995391;28;20056;-31
2023/04/03 04:11:24;;;;;;;1.73;0.70;;;17.40;1.00;;;;;;4995345;28;20045;-31
2023/04/03 04:13:53;;;;;;;1.33;0.43;;;17.40;1.00;;;;;;5010922;28;20072;-31
2023/04/03 04:16:24;;;;;;;3.25;0.80;;;17.40;1.00;;;;;;5011707;28;20417;-31
2023/04/03 04:18:52;;;;;;;2.42;0.70;;;17.40;1.00;;;;;;4995254;28;20519;-31
2023/04/03 04:21:20;;;;;;;3.47;0.60;;;17.40;1.00;;;;;;5010641;28;20100;-36
2023/04/03 04:23:49;;;;;;;4.65;0.98;;;17.40;1.00;;;;;;5009645;28;20100;-39
2023/04/03 04:26:16;;;;;;;2.03;0.95;;;17.40;1.00;;;;;;5010628;28;20077;-35
2023/04/03 04:28:43;;;;;;;2.20;0.73;;;17.30;1.00;;;;;;5011104;28;20433;-35
2023/04/03 04:31:10;;;;;;;1.55;0.52;;;17.30;1.00;;;;;;5011397;28;20502;-37
2023/04/03 04:33:37;;;;;;;2.85;0.63;;;17.30;1.00;;;;;;5010581;28;20072;-34
2023/04/03 04:36:06;;;;;;;0.98;0.38;;;17.20;1.00;;;;;;5011152;28;20100;-33
2023/04/03 04:38:33;;;;;;;5.80;0.88;;;17.20;1.00;;;;;;4995012;28;20128;-32
2023/04/03 04:41:01;;;;;;;1.98;0.40;;;17.10;1.00;;;;;;5011268;28;20073;-37
2023/04/03 04:43:27;;;;;;;1.77;0.50;;;17.20;1.00;;;;;;5010314;28;20042;-33
2023/04/03 04:46:06;;;;;;;2.75;0.32;;;17.10;1.00;;;;;;5011039;28;20053;-37
2023/04/03 04:48:38;;;;;;;0.75;0.40;;;17.10;1.00;;;;;;5011128;28;20042;-35
2023/04/03 04:51:06;;;;;;;5.28;0.95;;;17.10;1.00;;;;;;5011149;28;20053;-36
2023/04/03 04:53:36;;;;;;;3.95;0.40;;;17.00;1.00;;;;;;5009472;28;20045;-32
2023/04/03 04:56:03;;;;;;;2.20;0.40;;;17.00;1.00;;;;;;4993494;28;20375;-33
2023/04/03 04:58:32;;;;;;;4.78;0.43;;;17.00;1.00;;;;;;5010042;28;20112;-35
2023/04/03 05:01:03;;;;;;;4.45;0.32;;;17.00;1.00;;;;;;4993426;28;20046;-33
2023/04/03 05:03:32;;;;;;;4.18;0.90;;;17.10;1.00;;;;;;5010227;28;20050;-33
2023/04/03 05:05:59;;;;;;;4.35;1.40;;;17.10;1.00;;;;;;5001723;28;20136;-34
2023/04/03 05:08:28;;;;;;;1.42;0.57;;;17.20;1.00;;;;;;4991384;28;20137;-31
2023/04/03 05:10:55;;;;;;;3.90;0.50;;;17.30;1.00;;;;;;4994320;28;20038;-37
2023/04/03 05:13:23;;;;;;;1.23;0.90;;;17.30;1.00;;;;;;5004033;28;20046;-33
2023/04/03 05:15:50;;;;;;;1.50;0.60;;;17.40;1.00;;;;;;5009708;28;20046;-35
2023/04/03 05:18:17;;;;;;;0.93;0.60;;;17.50;1.00;;;;;;5009668;28;20064;-36
2023/04/03 05:20:44;;;;;;;5.75;0.40;;;17.50;1.00;;;;;;4977649;28;20054;-39
2023/04/03 05:23:11;;;;;;;1.10;0.70;;;17.60;1.00;;;;;;5010334;28;20050;-34
2023/04/03 05:25:40;;;;;;;1.65;0.45;;;17.70;1.00;;;;;;5010949;28;20042;-35
2023/04/03 05:28:08;;;;;;;1.00;0.38;;;17.70;1.00;;;;;;4994181;28;20041;-34
2023/04/03 05:30:35;;;;;;;1.08;0.32;;;17.70;1.00;;;;;;5010367;28;20087;-37
2023/04/03 05:33:03;;;;;;;2.17;0.65;;;17.80;1.00;;;;;;4993497;28;20052;-37
2023/04/03 05:35:41;;;;;;;1.55;0.57;;;17.80;1.00;;;;;;5013690;28;20077;-36
2023/04/03 05:38:11;;;;;;;2.58;0.43;;;17.90;1.00;;;;;;5013738;28;20060;-35
2023/04/03 05:40:38;;;;;;;2.13;0.60;;;17.90;1.00;;;;;;5014493;28;20457;-35
2023/04/03 05:43:06;;;;;;;2.30;0.50;;;17.90;1.00;;;;;;5014859;28;20521;-37
2023/04/03 05:45:36;;;;;;;3.95;0.70;;;17.90;1.00;;;;;;4998079;28;20045;-34
2023/04/03 05:48:03;;;;;;;1.08;0.32;;;17.90;1.00;;;;;;5015370;28;20045;-36
2023/04/03 05:50:31;;;;;;;1.63;0.47;;;17.90;1.00;;;;;;5014343;28;20053;-32
2023/04/03 05:52:59;;;;;;;1.35;0.35;;;17.90;1.00;;;;;;5014662;28;20046;-34
2023/04/03 05:55:29;;;;;;;2.88;0.88;;;17.90;1.00;;;;;;5015462;28;20037;-36
2023/04/03 05:57:56;;;;;;;3.13;0.80;;;17.90;1.00;;;;;;4998005;28;20060;-35
2023/04/03 06:00:23;;;;;;;2.30;0.88;;;17.90;1.00;;;;;;4997637;28;20057;-35
2023/04/03 06:02:59;;;;;;;2.05;0.60;;;17.90;1.00;;;;;;5012447;28;20049;-38
2023/04/03 06:05:26;;;;;;;1.15;0.30;;;17.90;1.00;;;;;;4996739;28;20050;-32
2023/04/03 06:07:53;;;;;;;4.28;0.65;;;17.80;1.00;;;;;;4996679;28;20137;-36
2023/04/03 06:10:20;;;;;;;1.10;0.57;;;17.90;1.00;;;;;;5013115;28;20409;-36
2023/04/03 06:12:47;;;;;;;4.05;0.63;;;17.90;1.00;;;;;;5014146;28;20038;-36
2023/04/03 06:15:15;;;;;;;1.10;0.60;;;17.90;1.00;;;;;;5013566;28;20472;-32
2023/04/03 06:17:42;;;;;;;3.60;0.80;;;17.90;1.00;;;;;;5015137;28;20415;-36
2023/04/03 06:20:11;;;;;;;2.15;0.50;;;17.90;1.00;;;;;;5013671;28;20050;-34
2023/04/03 06:22:39;;;;;;;1.80;0.77;;;17.90;1.00;;;;;;5012659;28;20046;-41
2023/04/03 06:25:06;;;;;;;1.73;0.65;;;17.90;1.00;;;;;;5014782;28;20121;-36
2023/04/03 06:27:33;;;;;;;1.02;0.43;;;17.90;1.00;;;;;;5014553;28;20060;-37
2023/04/03 06:30:00;;;;;;;0.90;0.30;;;17.90;1.00;;;;;;5014515;28;20067;-37
2023/04/03 06:32:26;;;;;;;1.65;0.60;;;18.00;1.00;;;;;;5013443;28;20042;-38
2023/04/03 06:34:53;;;;;;;0.85;0.30;;;18.00;1.00;;;;;;5013373;28;20045;-40
2023/04/03 06:37:22;;;;;;;1.25;0.55;;;18.00;1.00;;;;;;5013857;28;20044;-37
2023/04/03 06:39:49;;;;;;;1.92;0.65;;;18.00;1.00;;;;;;5014074;28;20042;-38
2023/04/03 06:42:16;;;;;;;2.72;0.50;;;18.00;1.00;;;;;;5014045;28;20054;-36
2023/04/03 06:44:51;;;;;;;1.92;0.77;;;18.00;1.00;;;;;;5011723;28;20050;-32
2023/04/03 06:47:18;;;;;;;1.77;0.50;;;18.00;1.00;;;;;;5014117;28;20100;-33
2023/04/03 06:49:45;;;;;;;1.77;0.90;;;18.00;1.00;;;;;;5014462;28;20038;-35
2023/04/03 06:52:12;;;;;;;1.20;0.73;;;18.00;1.00;;;;;;5014190;28;20046;-35
2023/04/03 06:54:40;;;;;;;1.65;0.52;;;17.90;1.00;;;;;;5013874;28;20050;-32
2023/04/03 06:57:07;;;;;;;1.05;0.50;;;17.90;1.00;;;;;;5014439;28;20046;-34
2023/04/03 06:59:36;;;;;;;1.08;0.60;;;17.90;1.00;;;;;;5014211;28;20052;-32
2023/04/03 07:02:03;;;;;;;1.13;0.32;;;17.90;1.00;;;;;;5012897;28;20100;-34
2023/04/03 07:04:30;;;;;;;2.25;0.80;;;17.90;1.00;;;;;;5012899;28;20052;-37
2023/04/03 07:06:57;;;;;;;1.70;0.88;;;17.90;1.00;;;;;;5013078;28;20391;-34
2023/04/03 07:09:24;;;;;;;0.98;0.40;;;17.80;1.00;;;;;;5013016;28;20481;-35
2023/04/03 07:11:51;;;;;;;1.67;0.70;;;17.80;1.00;;;;;;5013365;28;20034;-37
2023/04/03 07:14:18;;;;;;;5.75;1.10;;;17.80;1.00;;;;;;5013009;28;20042;-34
2023/04/03 07:16:44;;;;;;;2.83;0.57;;;17.80;1.00;;;;;;5013893;28;20049;-37
2023/04/03 07:19:11;;;;;;;1.73;0.55;;;17.80;1.00;;;;;;5013977;28;20046;-36
2023/04/03 07:21:38;;;;;;;1.25;0.73;;;17.80;1.00;;;;;;5013789;28;20080;-31
2023/04/03 07:24:07;;;;;;;2.08;0.60;;;17.70;1.00;;;;;;5012802;28;20072;-32
2023/04/03 07:26:40;;;;;;;2.65;0.60;;;17.70;1.00;;;;;;5013711;28;20133;-36
2023/04/03 07:29:08;;;;;;;1.55;0.60;;;17.70;1.00;;;;;;5013691;28;20065;-33
2023/04/03 07:31:35;;;;;;;3.70;0.40;;;17.70;1.00;;;;;;5013015;28;20121;-34
2023/04/03 07:34:03;;;;;;;1.00;0.30;;;17.70;1.00;;;;;;5011947;28;20050;-33
2023/04/03 07:36:33;;;;;;;4.53;0.73;;;17.70;1.00;;;;;;5012581;28;20076;-34
2023/04/03 07:38:59;;;;;;;1.15;0.50;;;17.60;1.00;;;;;;5012639;28;20494;-34
2023/04/03 07:41:26;;;;;;;1.95;0.60;;;17.60;1.00;;;;;;5013045;28;20042;-35
2023/04/03 07:43:53;;;;;;;2.55;0.70;;;17.60;1.00;;;;;;5012596;28;20104;-39
2023/04/03 07:46:20;;;;;;;1.27;0.50;;;17.60;1.00;;;;;;5013130;28;20121;-33
2023/04/03 07:48:47;;;;;;;3.67;0.75;;;17.60;1.00;;;;;;5013185;28;20080;-33
2023/04/03 07:51:20;;;;;;;3.50;1.33;;;17.50;1.00;;;;;;5013546;28;20045;-38
2023/04/03 07:53:48;;;;;;;3.17;0.50;;;17.50;1.00;;;;;;5011159;28;20049;-37
2023/04/03 07:56:16;;;;;;;3.35;0.65;;;17.50;1.00;;;;;;5012988;28;20048;-36
2023/04/03 07:58:43;;;;;;;3.40;0.70;;;17.50;1.00;;;;;;5013005;28;20054;-33
2023/04/03 08:01:10;;;;;;;1.08;0.40;;;17.50;1.00;;;;;;5013209;28;20485;-35
2023/04/03 08:03:37;;;;;;;1.50;0.65;;;17.50;1.00;;;;;;5011422;28;20508;-32
2023/04/03 08:06:07;;;;;;;5.28;1.20;;;17.50;1.00;;;;;;5012117;28;20054;-35
2023/04/03 08:08:41;;;;;;;1.08;0.52;;;17.40;1.00;;;;;;5012075;28;20049;-34
2023/04/03 08:11:10;;;;;;;0.95;0.35;;;17.40;1.00;;;;;;5012386;28;20042;-35
2023/04/03 08:13:37;;;;;;;2.47;1.13;;;17.40;1.00;;;;;;5012082;28;20037;-34
2023/04/03 08:16:15;;;;;;;3.63;0.40;;;17.40;1.00;;;;;;5012731;28;20049;-35
2023/04/03 08:18:42;;;;;;;2.17;0.90;;;17.40;1.00;;;;;;5012858;28;20493;-31
2023/04/03 08:21:11;;;;;;;1.90;0.57;;;17.40;1.00;;;;;;5012798;28;20041;-33
2023/04/03 08:23:40;;;;;;;3.53;0.60;;;17.40;1.00;;;;;;5010651;28;20050;-36
2023/04/03 08:26:13;;;;;;;1.58;0.60;;;17.40;1.00;;;;;;5012696;28;20096;-34
2023/04/03 08:28:40;;;;;;;2.53;0.47;;;17.40;1.00;;;;;;5012350;28;20096;-34
2023/04/03 08:31:11;;;;;;;5.05;1.20;;;17.40;1.00;;;;;;5012958;28;20658;-37
2023/04/03 08:33:39;;;;;;;1.45;0.47;;;17.40;1.00;;;;;;5011395;28;20116;-33
2023/04/03 08:36:19;;;;;;;1.63;0.88;;;17.40;1.00;;;;;;5011659;28;20080;-34
2023/04/03 08:38:46;;;;;;;1.98;0.52;;;17.40;1.00;;;;;;5011444;28;20042;-35
2023/04/03 08:41:34;;;;;;;2.60;0.57;;;17.40;1.00;;;;;;5011552;28;20199;-33
2023/04/03 08:44:51;;;;;;;4.10;0.77;;;17.40;1.00;;;;;;5011414;28;20050;-36
2023/04/03 08:47:36;;;;;;;3.92;0.90;;;17.30;1.00;;;;;;5012182;28;20046;-33
2023/04/03 08:50:07;;;;;;;1.55;1.15;;;17.30;1.00;;;;;;5012343;28;20129;-31
2023/04/03 08:52:41;;;;;;;1.33;0.40;;;17.40;1.00;;;;;;5011762;28;20541;-35
2023/04/03 08:55:32;;;;;;;1.43;0.37;;;17.30;1.00;;;;;;5012706;28;20042;-37
2023/04/03 08:58:19;;;;;;;2.85;0.40;;;17.30;1.00;;;;;;5012332;28;20500;-36
2023/04/03 09:00:48;;;;;;;0.88;0.40;;;17.40;1.00;;;;;;5011898;28;20046;-37
2023/04/03 09:03:18;;;;;;;2.53;0.20;;;17.40;1.00;;;;;;5010597;28;20125;-37
2023/04/03 09:05:48;;;;;;;1.77;0.60;;;17.40;1.00;;;;;;5011271;28;20073;-36
2023/04/03 09:08:41;;;;;;;1.25;0.45;;;17.40;1.00;;;;;;5010504;28;20139;-33
2023/04/03 09:11:32;;;;;;;3.75;1.17;;;17.40;1.00;;;;;;5011703;28;20050;-33
2023/04/03 09:14:31;;;;;;;2.53;0.68;;;17.40;1.00;;;;;;5011329;28;20038;-39
2023/04/03 09:17:04;;;;;;;2.03;0.55;;;17.40;1.00;;;;;;5006499;28;20054;-34
2023/04/03 09:19:32;;;;;;;1.40;0.40;;;17.40;1.00;;;;;;5031954;28;20041;-35
2023/04/03 09:22:17;;;;;;;1.00;0.38;;;17.40;1.00;;;;;;5031680;28;20073;-34
2023/04/03 09:24:55;;;;;;;1.65;0.60;;;17.40;1.00;;;;;;5031235;28;20045;-32
2023/04/03 09:27:22;;;;;;;2.78;0.80;;;17.40;1.00;;;;;;5031662;28;20073;-39
2023/04/03 09:29:52;;;;;;;3.30;0.93;;;17.40;1.00;;;;;;5031671;28;20033;-37
2023/04/03 09:32:27;;;;;;;0.93;0.40;;;17.50;1.00;;;;;;5031239;28;20490;-37
2023/04/03 09:35:10;;;;;;;1.98;0.63;;;17.50;1.00;;;;;;5030571;28;20040;-37
2023/04/03 09:37:56;;;;;;;2.70;0.50;;;17.50;1.00;;;;;;5030659;28;20049;-36
2023/04/03 09:40:26;;;;;;;1.15;0.47;;;17.50;1.00;;;;;;5030679;28;20488;-33
2023/04/03 09:42:55;;;;;;;1.48;0.40;;;17.60;1.00;;;;;;5030126;28;20067;-33
2023/04/03 09:45:34;;;;;;;1.02;0.55;;;17.50;1.00;;;;;;5031598;28;20536;-34
2023/04/03 09:48:11;;;;;;;1.05;0.35;;;17.50;1.00;;;;;;5031613;28;20460;-31
2023/04/03 09:50:52;;;;;;;1.85;0.55;;;17.60;1.00;;;;;;5031768;28;20282;-33
2023/04/03 09:53:38;;;;;;;2.70;0.52;;;17.60;1.00;;;;;;5029978;28;20455;-35
2023/04/03 09:56:22;;;;;;;2.70;0.70;;;17.60;1.00;;;;;;5031192;28;20088;-39
2023/04/03 09:59:16;;;;;;;1.05;0.30;;;17.60;1.00;;;;;;5031515;28;20404;-39
2023/04/03 10:02:03;;;;;;;1.02;0.30;;;17.60;1.00;;;;;;5028693;28;20072;-37
2023/04/03 10:04:41;;;;;;;2.00;0.50;;;17.60;1.00;;;;;;5029482;28;20056;-35
2023/04/03 10:07:29;;;;;;;4.43;0.95;;;17.60;1.00;;;;;;5030335;28;20504;-32
2023/04/03 10:10:17;;;;;;;1.70;0.40;;;17.60;1.00;;;;;;5030805;28;20397;-34
2023/04/03 10:12:44;;;;;;;2.92;0.20;;;17.60;1.00;;;;;;5030256;28;20045;-31
2023/04/03 10:15:18;;;;;;;0.95;0.30;;;17.60;1.00;;;;;;5031260;28;20072;-35
2023/04/03 10:17:53;;;;;;;1.05;0.40;;;17.60;1.00;;;;;;5031220;28;20132;-34
2023/04/03 10:20:23;;;;;;;2.30;0.68;;;17.60;1.00;;;;;;5031698;28;20050;-33
2023/04/03 10:23:37;;;;;;;1.95;0.43;;;17.60;1.00;;;;;;5033336;28;20124;-35
2023/04/03 10:26:10;;;;;;;1.67;0.50;;;17.60;1.00;;;;;;5024678;28;20501;-37
2023/04/03 10:28:49;;;;;;;1.98;0.45;;;17.60;1.00;;;;;;5034514;28;20045;-33
2023/04/03 10:31:32;;;;;;;2.72;0.63;;;17.70;1.00;;;;;;5033640;28;20567;-34
2023/04/03 10:34:09;;;;;;;;;;;17.70;1.00;;;;;;5033198;28;20065;-35
2023/04/03 10:36:54;;;;;;;2.25;0.70;;;17.60;1.00;;;;;;5033544;28;19921;-34
2023/04/03 10:39:37;;;;;;;1.00;0.38;;;17.60;1.00;;;;;;5034036;28;20053;-34
2023/04/03 10:42:18;;;;;;;0.80;0.30;;;17.60;1.00;;;;;;5034680;28;20417;-36
2023/04/03 10:44:52;;;;;;;1.25;0.40;;;17.60;1.00;;;;;;5033887;28;20371;-36
2023/04/03 10:47:28;;;;;;;2.92;0.63;;;17.60;1.00;;;;;;5034374;28;20049;-35
2023/04/03 10:50:25;;;;;;;2.33;0.45;;;17.60;1.00;;;;;;5034150;28;20489;-31
2023/04/03 10:53:11;;;;;;;0.98;0.40;;;17.60;1.00;;;;;;5033624;28;20501;-33
2023/04/03 10:55:42;;;;;;;2.28;0.30;;;17.60;1.00;;;;;;5034146;28;20046;-31
2023/04/03 10:58:24;;;;;;;1.83;0.50;;;17.60;1.00;;;;;;5033725;28;20037;-34
2023/04/03 11:00:53;;;;;;;1.98;0.47;;;17.60;1.00;;;;;;5032147;28;20132;-33
2023/04/03 11:03:45;;;;;;;0.80;0.40;;;17.60;1.00;;;;;;5032271;28;20045;-36
2023/04/03 11:06:15;;;;;;;2.35;0.70;;;17.60;1.00;;;;;;5030567;28;20103;-32
2023/04/03 11:08:56;;;;;;;1.70;0.60;;;17.60;1.00;;;;;;5033384;28;20037;-33
2023/04/03 11:11:35;;;;;;;2.45;0.47;;;17.60;1.00;;;;;;5033875;28;20072;-36
2023/04/03 11:14:13;;;;;;;0.80;0.40;;;17.60;1.00;;;;;;5033240;28;20513;-33
2023/04/03 11:16:50;;;;;;;1.60;0.52;;;17.60;1.00;;;;;;5032751;28;20464;-36
2023/04/03 11:19:27;;;;;;;0.82;0.35;;;17.50;1.00;;;;;;5033931;28;20051;-38
2023/04/03 11:22:00;;;;;;;1.13;0.45;;;17.60;1.00;;;;;;5032802;28;20057;-32
2023/04/03 11:24:30;;;;;;;0.95;0.28;;;17.50;1.00;;;;;;5032096;28;20242;-37
2023/04/03 11:26:59;;;;;;;0.88;0.22;;;17.50;1.00;;;;;;5032679;28;20045;-34
2023/04/03 11:29:34;;;;;;;1.77;0.32;;;17.50;1.00;;;;;;5032506;28;20048;-34
2023/04/03 11:32:11;;;;;;;1.10;0.32;;;17.50;1.00;;;;;;5032522;28;20041;-33
2023/04/03 11:34:40;;;;;;;2.38;0.50;;;17.50;1.00;;;;;;5032726;28;20057;-34
2023/04/03 11:37:17;;;;;;;1.95;0.20;;;17.50;1.00;;;;;;5033315;28;20099;-32
2023/04/03 11:40:04;;;;;;;1.35;0.45;;;17.50;1.00;;;;;;5033297;28;20049;-33
2023/04/03 11:42:39;;;;;;;1.38;0.43;;;17.50;1.00;;;;;;5032882;28;20052;-36
2023/04/03 11:45:22;;;;;;;2.65;0.57;;;17.40;1.00;;;;;;5033133;28;20050;-33
2023/04/03 11:47:58;;;;;;;1.30;0.45;;;17.40;1.00;;;;;;5033109;28;20056;-40
2023/04/03 11:50:41;;;;;;;1.20;0.35;;;17.40;1.00;;;;;;5033068;28;20121;-36
2023/04/03 11:53:27;;;;;;;2.42;0.40;;;17.40;1.00;;;;;;5032014;28;20076;-34
2023/04/03 11:55:58;;;;;;;1.85;0.55;;;17.40;1.00;;;;;;5032850;28;20449;-32
2023/04/03 11:58:31;;;;;;;0.77;0.32;;;17.40;1.00;;;;;;5031849;28;20038;-34
2023/04/03 12:00:59;;;;;;;0.65;0.30;;;17.40;1.00;;;;;;5032044;28;20416;-32
2023/04/03 12:03:33;;;;;;;1.77;0.47;;;17.40;1.00;;;;;;5031223;28;20041;-36
2023/04/03 12:06:06;;;;;;;0.57;0.20;;;17.40;1.00;;;;;;5032202;28;20512;-35
2023/04/03 12:08:34;;;;;;;0.30;0.20;;;17.30;1.00;;;;;;5032831;28;20540;-32
2023/04/03 12:11:16;;;;;;;0.80;0.32;;;17.30;1.00;;;;;;5032711;28;20037;-34
2023/04/03 12:13:49;;;;;;;2.63;0.32;;;17.30;1.00;;;;;;5032011;28;20046;-32
2023/04/03 12:16:38;;;;;;;2.20;0.38;;;17.30;1.00;;;;;;5032705;28;20037;-34
2023/04/03 12:19:14;;;;;;;1.38;0.35;;;17.30;1.00;;;;;;5032580;28;20045;-36
2023/04/03 12:21:46;;;;;;;2.45;0.68;;;17.30;1.00;;;;;;5032442;28;20049;-39
2023/04/03 12:24:16;;;;;;;0.95;0.30;;;17.30;1.00;;;;;;5031814;28;20095;-39
2023/04/03 12:27:09;;;;;;;0.65;0.17;;;17.30;1.00;;;;;;5032597;28;20117;-39
2023/04/03 12:29:44;;;;;;;1.20;0.40;;;17.30;1.00;;;;;;5032443;28;20041;-33
2023/04/03 12:32:32;;;;;;;1.00;0.40;;;17.30;1.00;;;;;;5031839;28;20473;-35
2023/04/03 12:35:11;;;;;;;1.27;0.32;;;17.30;1.00;;;;;;5031175;28;20068;-34
2023/04/03 12:37:47;;;;;;;0.75;0.40;;;17.20;1.00;;;;;;5031382;28;20116;-32
2023/04/03 12:40:43;;;;;;;0.82;0.30;;;17.20;1.00;;;;;;5031812;28;20088;-37
2023/04/03 12:43:17;;;;;;;2.00;0.28;;;17.30;1.00;;;;;;5030457;28;20080;-36
2023/04/03 12:46:33;;;;;;;1.80;0.70;;;17.20;1.00;;;;;;5032219;28;20087;-37
2023/04/03 12:49:35;;;;;;;1.58;0.52;;;17.20;1.00;;;;;;5032150;28;20124;-34
2023/04/03 12:53:02;;;;;;;0.75;0.20;;;17.20;1.00;;;;;;5031572;28;20107;-33
2023/04/03 12:55:29;;;;;;;1.20;0.43;;;17.20;1.00;;;;;;5032065;28;20037;-33
2023/04/03 12:57:56;;;;;;;0.65;0.28;;;17.20;1.00;;;;;;5014551;28;20046;-37
2023/04/03 13:00:33;;;;;;;1.20;0.30;;;17.10;1.00;;;;;;5032057;28;20083;-36
2023/04/03 13:03:02;;;;;;;0.65;0.35;;;17.20;1.00;;;;;;5031230;28;20493;-34
2023/04/03 13:05:30;;;;;;;1.73;0.20;;;17.10;1.00;;;;;;5031698;28;20132;-34
2023/04/03 13:08:05;;;;;;;1.80;0.50;;;17.10;1.00;;;;;;5031868;28;20045;-36
2023/04/03 13:10:42;;;;;;;1.70;0.30;;;17.10;1.00;;;;;;5029872;28;20048;-35
2023/04/03 13:13:10;;;;;;;1.13;0.40;;;17.10;1.00;;;;;;5030238;28;20501;-37
2023/04/03 13:15:43;;;;;;;0.60;0.10;;;17.10;1.00;;;;;;5030894;28;20037;-38
2023/04/03 13:18:25;;;;;;;2.08;0.65;;;17.10;1.00;;;;;;5031059;28;20033;-37
2023/04/03 13:20:53;;;;;;;1.73;0.30;;;17.10;1.00;;;;;;5030412;28;20402;-33
2023/04/03 13:23:22;;;;;;;2.38;0.43;;;17.10;1.00;;;;;;5030934;28;20045;-35